Joseph, Oregon
Current Conditions -  °F | °C
As of 6:35 AM on Thursday 29 Jan 2015 (Local Time) from KLGD Reporting Station
Clear Clear  
Wind Chill: 25°   Ceiling: Unl
Heat Index: 25°   Visibility: 10mi
Dew Point: 18°   Wind: 3mph
Humidity: 74%   Direction: 330°NNW
Pressure: 30.39"   Gusts: NA
Location:  45.35°N, 117.23°W
Report Text: KLGD 291435Z AUTO 33003KT 10SM CLR M04/M08 A3039 RMK AO1
Loading
Personal Weather Stations






























Interactive Weather Map New forecast layout! Learn more

10-Day Weather Forecast

Advertisements
Track Severe Weather on mobile